sensor_id;sensor_type;location;lat;lon;timestamp;P1;durP1;ratioP1;P2;durP2;ratioP2
54665;SDS011;40566;50.006;36.180;2023-04-03T00:02:58;10.15;;;3.80;;
54665;SDS011;40566;50.006;36.180;2023-04-03T00:07:58;7.22;;;3.20;;
54665;SDS011;40566;50.006;36.180;2023-04-03T00:13:00;7.78;;;3.33;;
54665;SDS011;40566;50.006;36.180;2023-04-03T00:18:01;7.70;;;3.15;;
54665;SDS011;40566;50.006;36.180;2023-04-03T00:23:03;7.60;;;3.45;;
54665;SDS011;40566;50.006;36.180;2023-04-03T00:28:04;9.15;;;3.28;;
54665;SDS011;40566;50.006;36.180;2023-04-03T00:33:04;8.77;;;3.20;;
54665;SDS011;40566;50.006;36.180;2023-04-03T00:38:05;7.00;;;2.70;;
54665;SDS011;40566;50.006;36.180;2023-04-03T00:43:11;7.82;;;3.15;;
54665;SDS011;40566;50.006;36.180;2023-04-03T00:48:20;5.63;;;2.80;;
54665;SDS011;40566;50.006;36.180;2023-04-03T00:53:31;7.88;;;3.35;;
54665;SDS011;40566;50.006;36.180;2023-04-03T00:58:37;6.72;;;3.25;;
54665;SDS011;40566;50.006;36.180;2023-04-03T01:03:59;6.88;;;2.72;;
54665;SDS011;40566;50.006;36.180;2023-04-03T01:09:01;6.75;;;2.90;;
54665;SDS011;40566;50.006;36.180;2023-04-03T01:14:02;7.60;;;2.88;;
54665;SDS011;40566;50.006;36.180;2023-04-03T01:19:03;8.20;;;2.70;;
54665;SDS011;40566;50.006;36.180;2023-04-03T01:29:47;7.65;;;2.70;;
54665;SDS011;40566;50.006;36.180;2023-04-03T01:34:48;4.55;;;2.42;;
54665;SDS011;40566;50.006;36.180;2023-04-03T01:39:48;5.68;;;2.25;;
54665;SDS011;40566;50.006;36.180;2023-04-03T01:44:49;5.25;;;2.35;;
54665;SDS011;40566;50.006;36.180;2023-04-03T01:49:50;6.53;;;2.60;;
54665;SDS011;40566;50.006;36.180;2023-04-03T01:54:50;5.90;;;2.40;;
54665;SDS011;40566;50.006;36.180;2023-04-03T01:59:51;4.25;;;1.95;;
54665;SDS011;40566;50.006;36.180;2023-04-03T02:04:51;6.50;;;2.30;;
54665;SDS011;40566;50.006;36.180;2023-04-03T02:09:52;5.95;;;2.20;;
54665;SDS011;40566;50.006;36.180;2023-04-03T02:14:52;5.53;;;2.10;;
54665;SDS011;40566;50.006;36.180;2023-04-03T02:19:53;4.93;;;2.10;;
54665;SDS011;40566;50.006;36.180;2023-04-03T02:24:53;5.38;;;2.20;;
54665;SDS011;40566;50.006;36.180;2023-04-03T02:29:54;5.70;;;2.10;;
54665;SDS011;40566;50.006;36.180;2023-04-03T02:34:55;4.53;;;2.00;;
54665;SDS011;40566;50.006;36.180;2023-04-03T02:39:56;5.57;;;2.33;;
54665;SDS011;40566;50.006;36.180;2023-04-03T02:44:57;5.55;;;2.20;;
54665;SDS011;40566;50.006;36.180;2023-04-03T02:50:00;4.28;;;1.70;;
54665;SDS011;40566;50.006;36.180;2023-04-03T02:55:01;4.90;;;2.30;;
54665;SDS011;40566;50.006;36.180;2023-04-03T03:00:01;7.18;;;2.20;;
54665;SDS011;40566;50.006;36.180;2023-04-03T03:05:03;6.40;;;2.00;;
54665;SDS011;40566;50.006;36.180;2023-04-03T03:10:04;4.97;;;2.20;;
54665;SDS011;40566;50.006;36.180;2023-04-03T03:15:05;5.00;;;1.92;;
54665;SDS011;40566;50.006;36.180;2023-04-03T03:20:06;7.45;;;2.45;;
54665;SDS011;40566;50.006;36.180;2023-04-03T03:25:08;4.20;;;2.00;;
54665;SDS011;40566;50.006;36.180;2023-04-03T03:30:09;7.55;;;1.92;;
54665;SDS011;40566;50.006;36.180;2023-04-03T03:35:10;5.70;;;2.10;;
54665;SDS011;40566;50.006;36.180;2023-04-03T03:40:11;5.40;;;2.05;;
54665;SDS011;40566;50.006;36.180;2023-04-03T03:45:13;3.85;;;1.98;;
54665;SDS011;40566;50.006;36.180;2023-04-03T03:50:13;6.50;;;2.10;;
54665;SDS011;40566;50.006;36.180;2023-04-03T03:55:14;6.65;;;2.33;;
54665;SDS011;40566;50.006;36.180;2023-04-03T04:00:15;7.00;;;2.20;;
54665;SDS011;40566;50.006;36.180;2023-04-03T04:05:16;4.95;;;2.20;;
54665;SDS011;40566;50.006;36.180;2023-04-03T04:10:17;8.13;;;2.53;;
54665;SDS011;40566;50.006;36.180;2023-04-03T04:15:17;5.40;;;1.98;;
54665;SDS011;40566;50.006;36.180;2023-04-03T04:20:18;5.25;;;2.30;;
54665;SDS011;40566;50.006;36.180;2023-04-03T04:25:19;5.93;;;2.40;;
54665;SDS011;40566;50.006;36.180;2023-04-03T04:30:20;6.82;;;2.35;;
54665;SDS011;40566;50.006;36.180;2023-04-03T04:35:20;5.78;;;2.47;;
54665;SDS011;40566;50.006;36.180;2023-04-03T04:40:21;8.73;;;3.55;;
54665;SDS011;40566;50.006;36.180;2023-04-03T04:45:22;6.93;;;2.88;;
54665;SDS011;40566;50.006;36.180;2023-04-03T04:50:22;5.55;;;2.17;;
54665;SDS011;40566;50.006;36.180;2023-04-03T04:55:23;7.72;;;2.47;;
54665;SDS011;40566;50.006;36.180;2023-04-03T05:00:23;8.00;;;2.60;;
54665;SDS011;40566;50.006;36.180;2023-04-03T05:05:24;7.18;;;2.45;;
54665;SDS011;40566;50.006;36.180;2023-04-03T05:10:25;5.72;;;2.40;;
54665;SDS011;40566;50.006;36.180;2023-04-03T05:15:25;6.88;;;2.35;;
54665;SDS011;40566;50.006;36.180;2023-04-03T05:20:26;5.55;;;2.20;;
54665;SDS011;40566;50.006;36.180;2023-04-03T05:25:27;6.78;;;2.75;;
54665;SDS011;40566;50.006;36.180;2023-04-03T05:30:27;6.60;;;3.22;;
54665;SDS011;40566;50.006;36.180;2023-04-03T05:35:28;9.90;;;3.78;;
54665;SDS011;40566;50.006;36.180;2023-04-03T05:40:28;8.68;;;3.15;;
54665;SDS011;40566;50.006;36.180;2023-04-03T05:45:29;7.05;;;2.92;;
54665;SDS011;40566;50.006;36.180;2023-04-03T05:50:30;7.60;;;2.88;;
54665;SDS011;40566;50.006;36.180;2023-04-03T05:55:31;6.88;;;2.80;;
54665;SDS011;40566;50.006;36.180;2023-04-03T06:00:31;9.30;;;3.00;;
54665;SDS011;40566;50.006;36.180;2023-04-03T06:05:32;7.70;;;3.22;;
54665;SDS011;40566;50.006;36.180;2023-04-03T06:10:33;8.55;;;3.63;;
54665;SDS011;40566;50.006;36.180;2023-04-03T06:15:33;8.00;;;2.70;;
54665;SDS011;40566;50.006;36.180;2023-04-03T06:20:34;8.07;;;2.63;;
54665;SDS011;40566;50.006;36.180;2023-04-03T06:25:34;5.90;;;2.30;;
54665;SDS011;40566;50.006;36.180;2023-04-03T06:30:35;9.23;;;3.00;;
54665;SDS011;40566;50.006;36.180;2023-04-03T06:35:36;8.13;;;2.42;;
54665;SDS011;40566;50.006;36.180;2023-04-03T06:40:38;6.90;;;2.35;;
54665;SDS011;40566;50.006;36.180;2023-04-03T06:45:39;7.28;;;2.45;;
54665;SDS011;40566;50.006;36.180;2023-04-03T06:50:39;7.53;;;2.90;;
54665;SDS011;40566;50.006;36.180;2023-04-03T06:55:41;7.32;;;2.63;;
54665;SDS011;40566;50.006;36.180;2023-04-03T07:00:41;8.30;;;2.75;;
54665;SDS011;40566;50.006;36.180;2023-04-03T07:05:42;6.70;;;2.60;;
54665;SDS011;40566;50.006;36.180;2023-04-03T07:10:44;7.57;;;2.70;;
54665;SDS011;40566;50.006;36.180;2023-04-03T07:15:45;7.25;;;3.25;;
54665;SDS011;40566;50.006;36.180;2023-04-03T07:20:45;7.53;;;3.17;;
54665;SDS011;40566;50.006;36.180;2023-04-03T07:25:46;8.07;;;3.05;;
54665;SDS011;40566;50.006;36.180;2023-04-03T07:30:49;7.80;;;2.80;;
54665;SDS011;40566;50.006;36.180;2023-04-03T07:35:51;7.50;;;2.88;;
54665;SDS011;40566;50.006;36.180;2023-04-03T07:40:51;11.32;;;2.75;;
54665;SDS011;40566;50.006;36.180;2023-04-03T07:45:52;20.27;;;7.15;;
54665;SDS011;40566;50.006;36.180;2023-04-03T07:50:58;10.48;;;3.30;;
54665;SDS011;40566;50.006;36.180;2023-04-03T07:56:00;19.02;;;9.07;;
54665;SDS011;40566;50.006;36.180;2023-04-03T08:01:02;15.75;;;4.72;;
54665;SDS011;40566;50.006;36.180;2023-04-03T08:06:04;6.85;;;3.28;;
54665;SDS011;40566;50.006;36.180;2023-04-03T08:11:06;14.02;;;3.55;;
54665;SDS011;40566;50.006;36.180;2023-04-03T08:16:12;6.88;;;2.85;;
54665;SDS011;40566;50.006;36.180;2023-04-03T08:21:16;7.10;;;3.17;;
54665;SDS011;40566;50.006;36.180;2023-04-03T08:26:18;11.45;;;3.75;;
54665;SDS011;40566;50.006;36.180;2023-04-03T08:31:21;8.57;;;3.42;;
54665;SDS011;40566;50.006;36.180;2023-04-03T08:36:23;7.63;;;3.30;;
54665;SDS011;40566;50.006;36.180;2023-04-03T08:41:36;10.75;;;3.75;;
54665;SDS011;40566;50.006;36.180;2023-04-03T08:51:52;8.55;;;3.90;;
54665;SDS011;40566;50.006;36.180;2023-04-03T08:56:55;7.95;;;3.38;;
54665;SDS011;40566;50.006;36.180;2023-04-03T09:01:56;8.00;;;3.35;;
54665;SDS011;40566;50.006;36.180;2023-04-03T09:07:04;6.47;;;3.10;;
54665;SDS011;40566;50.006;36.180;2023-04-03T09:12:24;11.25;;;3.83;;
54665;SDS011;40566;50.006;36.180;2023-04-03T09:17:35;10.43;;;3.60;;
54665;SDS011;40566;50.006;36.180;2023-04-03T09:22:37;8.50;;;3.67;;
54665;SDS011;40566;50.006;36.180;2023-04-03T09:27:41;9.23;;;4.28;;
54665;SDS011;40566;50.006;36.180;2023-04-03T09:32:44;9.95;;;4.70;;
54665;SDS011;40566;50.006;36.180;2023-04-03T09:37:47;11.82;;;4.65;;
54665;SDS011;40566;50.006;36.180;2023-04-03T09:42:52;15.00;;;4.93;;
54665;SDS011;40566;50.006;36.180;2023-04-03T09:48:17;11.65;;;5.88;;
54665;SDS011;40566;50.006;36.180;2023-04-03T09:53:25;11.38;;;4.57;;
54665;SDS011;40566;50.006;36.180;2023-04-03T09:58:31;10.10;;;3.42;;
54665;SDS011;40566;50.006;36.180;2023-04-03T10:03:37;9.48;;;3.90;;
54665;SDS011;40566;50.006;36.180;2023-04-03T10:08:39;12.20;;;4.40;;
54665;SDS011;40566;50.006;36.180;2023-04-03T10:13:50;11.48;;;5.22;;
54665;SDS011;40566;50.006;36.180;2023-04-03T10:18:57;12.35;;;4.90;;
54665;SDS011;40566;50.006;36.180;2023-04-03T10:24:11;9.73;;;5.25;;
54665;SDS011;40566;50.006;36.180;2023-04-03T10:29:31;13.57;;;6.55;;
54665;SDS011;40566;50.006;36.180;2023-04-03T10:34:43;15.02;;;6.40;;
54665;SDS011;40566;50.006;36.180;2023-04-03T11:01:16;12.60;;;6.10;;
54665;SDS011;40566;50.006;36.180;2023-04-03T11:06:22;11.43;;;5.80;;
54665;SDS011;40566;50.006;36.180;2023-04-03T11:11:35;16.40;;;6.97;;
54665;SDS011;40566;50.006;36.180;2023-04-03T11:16:41;12.00;;;6.35;;
54665;SDS011;40566;50.006;36.180;2023-04-03T11:26:57;16.55;;;8.52;;
54665;SDS011;40566;50.006;36.180;2023-04-03T11:37:20;18.88;;;10.05;;
54665;SDS011;40566;50.006;36.180;2023-04-03T11:47:53;16.38;;;8.15;;
54665;SDS011;40566;50.006;36.180;2023-04-03T11:58:18;19.30;;;10.10;;
54665;SDS011;40566;50.006;36.180;2023-04-03T12:03:30;15.88;;;8.55;;
54665;SDS011;40566;50.006;36.180;2023-04-03T12:13:32;14.07;;;7.45;;
54665;SDS011;40566;50.006;36.180;2023-04-03T12:39:45;13.75;;;6.43;;
54665;SDS011;40566;50.006;36.180;2023-04-03T12:50:20;15.95;;;6.70;;
54665;SDS011;40566;50.006;36.180;2023-04-03T12:55:47;14.02;;;7.65;;
54665;SDS011;40566;50.006;36.180;2023-04-03T13:01:04;17.30;;;8.40;;
54665;SDS011;40566;50.006;36.180;2023-04-03T13:06:14;16.50;;;9.07;;
54665;SDS011;40566;50.006;36.180;2023-04-03T13:11:19;14.90;;;8.52;;
54665;SDS011;40566;50.006;36.180;2023-04-03T13:16:21;17.88;;;9.05;;
54665;SDS011;40566;50.006;36.180;2023-04-03T13:21:26;16.98;;;9.50;;
54665;SDS011;40566;50.006;36.180;2023-04-03T13:26:30;16.48;;;8.50;;
54665;SDS011;40566;50.006;36.180;2023-04-03T13:31:36;19.73;;;10.88;;
54665;SDS011;40566;50.006;36.180;2023-04-03T13:41:55;25.30;;;13.63;;
54665;SDS011;40566;50.006;36.180;2023-04-03T13:57:22;16.88;;;8.80;;
54665;SDS011;40566;50.006;36.180;2023-04-03T14:02:32;17.00;;;8.88;;
54665;SDS011;40566;50.006;36.180;2023-04-03T14:07:33;19.10;;;10.82;;
54665;SDS011;40566;50.006;36.180;2023-04-03T14:12:35;20.63;;;11.00;;
54665;SDS011;40566;50.006;36.180;2023-04-03T14:17:39;22.80;;;13.05;;
54665;SDS011;40566;50.006;36.180;2023-04-03T14:22:40;15.80;;;9.15;;
54665;SDS011;40566;50.006;36.180;2023-04-03T14:27:44;15.68;;;8.68;;
54665;SDS011;40566;50.006;36.180;2023-04-03T14:32:46;16.83;;;9.40;;
54665;SDS011;40566;50.006;36.180;2023-04-03T14:37:48;16.25;;;10.02;;
54665;SDS011;40566;50.006;36.180;2023-04-03T14:42:48;21.85;;;12.48;;
54665;SDS011;40566;50.006;36.180;2023-04-03T14:47:52;18.38;;;10.98;;
54665;SDS011;40566;50.006;36.180;2023-04-03T14:52:55;23.23;;;13.10;;
54665;SDS011;40566;50.006;36.180;2023-04-03T14:57:58;26.98;;;14.68;;
54665;SDS011;40566;50.006;36.180;2023-04-03T15:03:00;19.05;;;10.82;;
54665;SDS011;40566;50.006;36.180;2023-04-03T15:08:00;16.60;;;9.75;;
54665;SDS011;40566;50.006;36.180;2023-04-03T15:13:01;14.27;;;8.63;;
54665;SDS011;40566;50.006;36.180;2023-04-03T15:18:03;14.65;;;8.55;;
54665;SDS011;40566;50.006;36.180;2023-04-03T15:23:04;15.18;;;8.15;;
54665;SDS011;40566;50.006;36.180;2023-04-03T15:28:06;13.80;;;8.23;;
54665;SDS011;40566;50.006;36.180;2023-04-03T15:33:12;15.63;;;8.45;;
54665;SDS011;40566;50.006;36.180;2023-04-03T15:38:13;12.93;;;7.70;;
54665;SDS011;40566;50.006;36.180;2023-04-03T15:43:14;16.90;;;9.25;;
54665;SDS011;40566;50.006;36.180;2023-04-03T15:48:15;16.17;;;8.48;;
54665;SDS011;40566;50.006;36.180;2023-04-03T15:53:16;17.75;;;8.18;;
54665;SDS011;40566;50.006;36.180;2023-04-03T15:58:17;13.90;;;8.05;;
54665;SDS011;40566;50.006;36.180;2023-04-03T16:03:18;14.48;;;7.40;;
54665;SDS011;40566;50.006;36.180;2023-04-03T16:08:21;14.75;;;8.60;;
54665;SDS011;40566;50.006;36.180;2023-04-03T16:13:22;15.55;;;9.73;;
54665;SDS011;40566;50.006;36.180;2023-04-03T16:18:23;18.25;;;10.88;;
54665;SDS011;40566;50.006;36.180;2023-04-03T16:23:24;18.20;;;9.35;;
54665;SDS011;40566;50.006;36.180;2023-04-03T16:28:24;14.48;;;8.70;;
54665;SDS011;40566;50.006;36.180;2023-04-03T16:33:26;19.70;;;11.32;;
54665;SDS011;40566;50.006;36.180;2023-04-03T16:38:27;11.95;;;6.70;;
54665;SDS011;40566;50.006;36.180;2023-04-03T16:43:28;13.15;;;7.63;;
54665;SDS011;40566;50.006;36.180;2023-04-03T16:48:29;18.02;;;10.65;;
54665;SDS011;40566;50.006;36.180;2023-04-03T16:53:30;14.50;;;7.80;;
54665;SDS011;40566;50.006;36.180;2023-04-03T16:58:31;15.45;;;7.72;;
54665;SDS011;40566;50.006;36.180;2023-04-03T17:03:32;13.82;;;8.05;;
54665;SDS011;40566;50.006;36.180;2023-04-03T17:08:34;13.85;;;7.85;;
54665;SDS011;40566;50.006;36.180;2023-04-03T17:13:36;15.27;;;8.75;;
54665;SDS011;40566;50.006;36.180;2023-04-03T17:18:37;14.32;;;8.93;;
54665;SDS011;40566;50.006;36.180;2023-04-03T17:23:38;15.30;;;9.02;;
54665;SDS011;40566;50.006;36.180;2023-04-03T17:28:41;17.13;;;9.65;;
54665;SDS011;40566;50.006;36.180;2023-04-03T17:33:41;16.27;;;9.20;;
54665;SDS011;40566;50.006;36.180;2023-04-03T17:38:42;16.85;;;9.10;;
54665;SDS011;40566;50.006;36.180;2023-04-03T17:43:42;18.42;;;11.48;;
54665;SDS011;40566;50.006;36.180;2023-04-03T17:48:44;18.58;;;9.85;;
54665;SDS011;40566;50.006;36.180;2023-04-03T17:53:45;20.65;;;13.85;;
54665;SDS011;40566;50.006;36.180;2023-04-03T17:58:46;16.65;;;11.73;;
54665;SDS011;40566;50.006;36.180;2023-04-03T18:03:48;17.92;;;11.00;;
54665;SDS011;40566;50.006;36.180;2023-04-03T18:08:54;20.38;;;11.60;;
54665;SDS011;40566;50.006;36.180;2023-04-03T18:13:58;16.48;;;10.48;;
54665;SDS011;40566;50.006;36.180;2023-04-03T18:19:02;17.10;;;10.70;;
54665;SDS011;40566;50.006;36.180;2023-04-03T18:24:10;20.00;;;12.20;;
54665;SDS011;40566;50.006;36.180;2023-04-03T18:29:16;21.98;;;12.75;;
54665;SDS011;40566;50.006;36.180;2023-04-03T18:34:17;22.42;;;12.93;;
54665;SDS011;40566;50.006;36.180;2023-04-03T18:39:18;22.35;;;12.73;;
54665;SDS011;40566;50.006;36.180;2023-04-03T18:44:19;24.00;;;14.32;;
54665;SDS011;40566;50.006;36.180;2023-04-03T18:49:21;23.88;;;13.77;;
54665;SDS011;40566;50.006;36.180;2023-04-03T18:54:21;22.83;;;12.85;;
54665;SDS011;40566;50.006;36.180;2023-04-03T18:59:22;23.90;;;12.95;;
54665;SDS011;40566;50.006;36.180;2023-04-03T19:04:24;25.10;;;14.48;;
54665;SDS011;40566;50.006;36.180;2023-04-03T19:09:26;26.88;;;15.38;;
54665;SDS011;40566;50.006;36.180;2023-04-03T19:14:27;24.83;;;13.65;;
54665;SDS011;40566;50.006;36.180;2023-04-03T19:19:27;23.70;;;14.07;;
54665;SDS011;40566;50.006;36.180;2023-04-03T19:24:28;27.00;;;15.57;;
54665;SDS011;40566;50.006;36.180;2023-04-03T19:29:29;24.20;;;13.38;;
54665;SDS011;40566;50.006;36.180;2023-04-03T19:34:29;19.92;;;12.10;;
54665;SDS011;40566;50.006;36.180;2023-04-03T19:39:30;24.88;;;13.45;;
54665;SDS011;40566;50.006;36.180;2023-04-03T19:44:34;20.27;;;11.40;;
54665;SDS011;40566;50.006;36.180;2023-04-03T19:49:36;22.17;;;11.35;;
54665;SDS011;40566;50.006;36.180;2023-04-03T19:54:36;20.20;;;11.10;;
54665;SDS011;40566;50.006;36.180;2023-04-03T19:59:37;20.88;;;11.02;;
54665;SDS011;40566;50.006;36.180;2023-04-03T20:04:38;19.77;;;9.80;;
54665;SDS011;40566;50.006;36.180;2023-04-03T20:09:39;18.98;;;9.07;;
54665;SDS011;40566;50.006;36.180;2023-04-03T20:14:39;19.33;;;9.80;;
54665;SDS011;40566;50.006;36.180;2023-04-03T20:19:40;13.15;;;8.07;;
54665;SDS011;40566;50.006;36.180;2023-04-03T20:24:40;14.13;;;7.70;;
54665;SDS011;40566;50.006;36.180;2023-04-03T20:29:41;15.25;;;8.02;;
54665;SDS011;40566;50.006;36.180;2023-04-03T20:34:42;16.63;;;8.60;;
54665;SDS011;40566;50.006;36.180;2023-04-03T20:39:43;16.58;;;9.30;;
54665;SDS011;40566;50.006;36.180;2023-04-03T20:44:44;16.48;;;8.18;;
54665;SDS011;40566;50.006;36.180;2023-04-03T20:49:45;16.33;;;8.13;;
54665;SDS011;40566;50.006;36.180;2023-04-03T20:54:45;17.17;;;8.43;;
54665;SDS011;40566;50.006;36.180;2023-04-03T20:59:46;15.75;;;8.35;;
54665;SDS011;40566;50.006;36.180;2023-04-03T21:04:51;16.15;;;8.10;;
54665;SDS011;40566;50.006;36.180;2023-04-03T21:20:48;15.88;;;8.57;;
54665;SDS011;40566;50.006;36.180;2023-04-03T21:25:49;17.70;;;8.93;;
54665;SDS011;40566;50.006;36.180;2023-04-03T21:30:50;14.93;;;8.02;;
54665;SDS011;40566;50.006;36.180;2023-04-03T21:35:50;15.50;;;8.55;;
54665;SDS011;40566;50.006;36.180;2023-04-03T21:40:56;16.30;;;7.40;;
54665;SDS011;40566;50.006;36.180;2023-04-03T21:45:58;15.20;;;8.63;;
54665;SDS011;40566;50.006;36.180;2023-04-03T21:51:04;16.63;;;8.88;;
54665;SDS011;40566;50.006;36.180;2023-04-03T21:56:05;15.48;;;9.27;;
54665;SDS011;40566;50.006;36.180;2023-04-03T22:01:07;17.63;;;9.48;;
54665;SDS011;40566;50.006;36.180;2023-04-03T22:06:09;19.25;;;9.50;;
54665;SDS011;40566;50.006;36.180;2023-04-03T22:11:12;23.73;;;10.50;;
54665;SDS011;40566;50.006;36.180;2023-04-03T22:16:13;19.05;;;10.18;;
54665;SDS011;40566;50.006;36.180;2023-04-03T22:21:14;20.70;;;10.43;;
54665;SDS011;40566;50.006;36.180;2023-04-03T22:26:14;20.02;;;10.60;;
54665;SDS011;40566;50.006;36.180;2023-04-03T22:31:15;22.73;;;11.75;;
54665;SDS011;40566;50.006;36.180;2023-04-03T22:36:16;24.67;;;12.32;;
54665;SDS011;40566;50.006;36.180;2023-04-03T22:41:16;22.85;;;11.95;;
54665;SDS011;40566;50.006;36.180;2023-04-03T22:46:17;25.30;;;12.95;;
54665;SDS011;40566;50.006;36.180;2023-04-03T22:51:17;27.73;;;13.75;;
54665;SDS011;40566;50.006;36.180;2023-04-03T22:56:18;26.48;;;14.07;;
54665;SDS011;40566;50.006;36.180;2023-04-03T23:01:18;27.75;;;13.68;;
54665;SDS011;40566;50.006;36.180;2023-04-03T23:06:19;31.45;;;14.07;;
54665;SDS011;40566;50.006;36.180;2023-04-03T23:11:20;29.58;;;15.45;;
54665;SDS011;40566;50.006;36.180;2023-04-03T23:16:20;33.53;;;15.80;;
54665;SDS011;40566;50.006;36.180;2023-04-03T23:21:21;33.30;;;14.48;;
54665;SDS011;40566;50.006;36.180;2023-04-03T23:26:22;27.55;;;14.02;;
54665;SDS011;40566;50.006;36.180;2023-04-03T23:31:23;26.55;;;14.23;;
54665;SDS011;40566;50.006;36.180;2023-04-03T23:36:24;29.25;;;14.93;;
54665;SDS011;40566;50.006;36.180;2023-04-03T23:41:25;31.92;;;15.05;;
54665;SDS011;40566;50.006;36.180;2023-04-03T23:46:43;31.63;;;14.57;;
54665;SDS011;40566;50.006;36.180;2023-04-03T23:51:44;29.10;;;13.85;;
54665;SDS011;40566;50.006;36.180;2023-04-03T23:56:44;27.42;;;13.48;;
